sensor_id;sensor_type;location;lat;lon;timestamp;pressure;altitude;pressure_sealevel;temperature;humidity
6208;BME280;3137;51.550;7.060;2023-01-29T00:01:22;102671.00;;;-3.24;84.92
6208;BME280;3137;51.550;7.060;2023-01-29T00:03:51;102670.91;;;-3.30;84.01
6208;BME280;3137;51.550;7.060;2023-01-29T00:06:17;102666.47;;;-3.34;83.26
6208;BME280;3137;51.550;7.060;2023-01-29T00:08:44;102667.34;;;-3.33;84.32
6208;BME280;3137;51.550;7.060;2023-01-29T00:11:11;102661.25;;;-3.32;84.33
6208;BME280;3137;51.550;7.060;2023-01-29T00:13:38;102658.66;;;-3.31;85.36
6208;BME280;3137;51.550;7.060;2023-01-29T00:16:05;102655.31;;;-3.22;84.29
6208;BME280;3137;51.550;7.060;2023-01-29T00:18:31;102659.56;;;-3.30;83.81
6208;BME280;3137;51.550;7.060;2023-01-29T00:20:58;102656.97;;;-3.26;85.22
6208;BME280;3137;51.550;7.060;2023-01-29T00:23:24;102648.22;;;-3.29;84.62
6208;BME280;3137;51.550;7.060;2023-01-29T00:25:51;102642.88;;;-3.34;85.04
6208;BME280;3137;51.550;7.060;2023-01-29T00:28:17;102649.88;;;-3.34;85.55
6208;BME280;3137;51.550;7.060;2023-01-29T00:30:43;102654.19;;;-3.36;84.88
6208;BME280;3137;51.550;7.060;2023-01-29T00:33:10;102654.16;;;-3.38;84.59
6208;BME280;3137;51.550;7.060;2023-01-29T00:35:39;102648.91;;;-3.38;84.25
6208;BME280;3137;51.550;7.060;2023-01-29T00:38:06;102648.91;;;-3.39;84.33
6208;BME280;3137;51.550;7.060;2023-01-29T00:40:32;102642.78;;;-3.42;84.79
6208;BME280;3137;51.550;7.060;2023-01-29T00:43:21;102639.22;;;-3.44;84.71
6208;BME280;3137;51.550;7.060;2023-01-29T00:46:06;102635.69;;;-3.46;85.73
6208;BME280;3137;51.550;7.060;2023-01-29T00:48:33;102641.78;;;-3.48;84.38
6208;BME280;3137;51.550;7.060;2023-01-29T00:51:01;102646.97;;;-3.50;85.03
6208;BME280;3137;51.550;7.060;2023-01-29T00:53:27;102651.34;;;-3.52;85.14
6208;BME280;3137;51.550;7.060;2023-01-29T00:55:55;102647.75;;;-3.55;85.81
6208;BME280;3137;51.550;7.060;2023-01-29T00:58:22;102647.75;;;-3.55;84.50
6208;BME280;3137;51.550;7.060;2023-01-29T01:00:54;102652.16;;;-3.54;84.42
6208;BME280;3137;51.550;7.060;2023-01-29T01:03:21;102657.44;;;-3.50;85.06
6208;BME280;3137;51.550;7.060;2023-01-29T01:05:47;102648.84;;;-3.44;84.57
6208;BME280;3137;51.550;7.060;2023-01-29T01:08:14;102653.94;;;-3.50;84.69
6208;BME280;3137;51.550;7.060;2023-01-29T01:11:04;102656.47;;;-3.56;85.87
6208;BME280;3137;51.550;7.060;2023-01-29T01:13:33;102650.25;;;-3.63;84.28
6208;BME280;3137;51.550;7.060;2023-01-29T01:16:00;102644.88;;;-3.69;85.23
6208;BME280;3137;51.550;7.060;2023-01-29T01:18:29;102637.00;;;-3.72;85.06
6208;BME280;3137;51.550;7.060;2023-01-29T01:20:56;102636.94;;;-3.75;85.07
6208;BME280;3137;51.550;7.060;2023-01-29T01:23:24;102619.44;;;-3.78;85.28
6208;BME280;3137;51.550;7.060;2023-01-29T01:25:51;102618.41;;;-3.88;85.41
6208;BME280;3137;51.550;7.060;2023-01-29T01:28:17;102611.28;;;-3.95;86.20
6208;BME280;3137;51.550;7.060;2023-01-29T01:30:43;102605.13;;;-3.97;85.92
6208;BME280;3137;51.550;7.060;2023-01-29T01:33:10;102609.59;;;-3.91;85.31
6208;BME280;3137;51.550;7.060;2023-01-29T01:35:37;102603.53;;;-3.90;85.42
6208;BME280;3137;51.550;7.060;2023-01-29T01:38:04;102617.56;;;-3.85;85.60
6208;BME280;3137;51.550;7.060;2023-01-29T01:40:31;102609.88;;;-3.76;86.16
6208;BME280;3137;51.550;7.060;2023-01-29T01:42:58;102614.34;;;-3.70;85.74
6208;BME280;3137;51.550;7.060;2023-01-29T01:45:29;102607.41;;;-3.67;86.93
6208;BME280;3137;51.550;7.060;2023-01-29T01:48:03;102611.06;;;-3.57;85.38
6208;BME280;3137;51.550;7.060;2023-01-29T01:50:44;102616.50;;;-3.46;84.58
6208;BME280;3137;51.550;7.060;2023-01-29T01:53:15;102620.06;;;-3.41;86.22
6208;BME280;3137;51.550;7.060;2023-01-29T01:55:48;102622.81;;;-3.33;85.70
6208;BME280;3137;51.550;7.060;2023-01-29T01:58:25;102623.63;;;-3.37;84.88
6208;BME280;3137;51.550;7.060;2023-01-29T02:00:53;102617.41;;;-3.43;84.21
6208;BME280;3137;51.550;7.060;2023-01-29T02:03:21;102615.63;;;-3.47;84.17
6208;BME280;3137;51.550;7.060;2023-01-29T02:06:09;102619.94;;;-3.49;84.62
6208;BME280;3137;51.550;7.060;2023-01-29T02:08:59;102620.84;;;-3.47;85.37
6208;BME280;3137;51.550;7.060;2023-01-29T02:11:46;102626.19;;;-3.42;84.27
6208;BME280;3137;51.550;7.060;2023-01-29T02:14:12;102619.28;;;-3.37;84.58
6208;BME280;3137;51.550;7.060;2023-01-29T02:16:39;102617.50;;;-3.38;83.80
6208;BME280;3137;51.550;7.060;2023-01-29T02:19:16;102612.44;;;-3.26;83.99
6208;BME280;3137;51.550;7.060;2023-01-29T02:27:40;102623.75;;;-3.28;85.27
6208;BME280;3137;51.550;7.060;2023-01-29T02:30:27;102624.66;;;-3.28;85.12
6208;BME280;3137;51.550;7.060;2023-01-29T02:33:03;102631.53;;;-3.33;83.25
6208;BME280;3137;51.550;7.060;2023-01-29T02:35:43;102634.16;;;-3.33;83.45
6208;BME280;3137;51.550;7.060;2023-01-29T02:41:06;102623.00;;;-3.21;84.94
6208;BME280;3137;51.550;7.060;2023-01-29T02:43:51;102617.66;;;-3.30;84.55
6208;BME280;3137;51.550;7.060;2023-01-29T02:46:45;102608.88;;;-3.32;83.50
6208;BME280;3137;51.550;7.060;2023-01-29T02:51:50;102613.50;;;-3.14;85.15
6208;BME280;3137;51.550;7.060;2023-01-29T02:54:30;102612.75;;;-3.09;83.73
6208;BME280;3137;51.550;7.060;2023-01-29T02:57:07;102618.84;;;-3.07;85.15
6208;BME280;3137;51.550;7.060;2023-01-29T02:59:44;102625.06;;;-3.00;84.78
6208;BME280;3137;51.550;7.060;2023-01-29T03:02:17;102626.94;;;-2.93;83.55
6208;BME280;3137;51.550;7.060;2023-01-29T03:04:50;102627.78;;;-2.95;82.96
6208;BME280;3137;51.550;7.060;2023-01-29T03:07:37;102629.47;;;-2.97;84.10
6208;BME280;3137;51.550;7.060;2023-01-29T03:10:18;102623.19;;;-3.10;82.86
6208;BME280;3137;51.550;7.060;2023-01-29T03:12:52;102615.22;;;-3.16;84.22
6208;BME280;3137;51.550;7.060;2023-01-29T03:15:28;102610.75;;;-3.24;82.79
6208;BME280;3137;51.550;7.060;2023-01-29T03:18:17;102617.69;;;-3.27;84.84
6208;BME280;3137;51.550;7.060;2023-01-29T03:20:50;102626.53;;;-3.21;83.02
6208;BME280;3137;51.550;7.060;2023-01-29T03:23:27;102638.06;;;-3.08;83.34
6208;BME280;3137;51.550;7.060;2023-01-29T03:26:19;102636.38;;;-3.04;83.46
6208;BME280;3137;51.550;7.060;2023-01-29T03:29:06;102643.28;;;-3.11;83.36
6208;BME280;3137;51.550;7.060;2023-01-29T03:31:55;102645.03;;;-3.10;82.45
6208;BME280;3137;51.550;7.060;2023-01-29T03:34:43;102632.69;;;-3.17;83.45
6208;BME280;3137;51.550;7.060;2023-01-29T03:37:21;102633.50;;;-3.19;84.56
6208;BME280;3137;51.550;7.060;2023-01-29T03:39:49;102632.59;;;-3.22;85.06
6208;BME280;3137;51.550;7.060;2023-01-29T03:42:43;102633.63;;;-3.12;83.80
6208;BME280;3137;51.550;7.060;2023-01-29T03:45:38;102627.69;;;-3.00;83.43
6208;BME280;3137;51.550;7.060;2023-01-29T03:48:27;102635.50;;;-3.06;83.42
6208;BME280;3137;51.550;7.060;2023-01-29T03:51:10;102628.47;;;-3.07;82.79
6208;BME280;3137;51.550;7.060;2023-01-29T03:56:59;102626.59;;;-3.16;83.09
6208;BME280;3137;51.550;7.060;2023-01-29T03:59:41;102624.91;;;-3.12;83.59
6208;BME280;3137;51.550;7.060;2023-01-29T04:02:50;102631.97;;;-3.08;84.56
6208;BME280;3137;51.550;7.060;2023-01-29T04:05:20;102628.56;;;-3.00;83.92
6208;BME280;3137;51.550;7.060;2023-01-29T04:08:11;102620.03;;;-2.86;84.01
6208;BME280;3137;51.550;7.060;2023-01-29T04:10:42;102612.19;;;-2.86;84.26
6208;BME280;3137;51.550;7.060;2023-01-29T04:13:12;102607.75;;;-2.90;84.18
6208;BME280;3137;51.550;7.060;2023-01-29T04:15:47;102597.28;;;-2.89;84.58
6208;BME280;3137;51.550;7.060;2023-01-29T04:18:18;102593.91;;;-2.82;84.07
6208;BME280;3137;51.550;7.060;2023-01-29T04:21:05;102587.78;;;-2.81;85.24
6208;BME280;3137;51.550;7.060;2023-01-29T04:23:34;102577.34;;;-2.78;83.98
6208;BME280;3137;51.550;7.060;2023-01-29T04:26:09;102580.03;;;-2.71;84.38
6208;BME280;3137;51.550;7.060;2023-01-29T04:29:07;102579.25;;;-2.66;85.27
6208;BME280;3137;51.550;7.060;2023-01-29T04:31:45;102581.94;;;-2.60;83.79
6208;BME280;3137;51.550;7.060;2023-01-29T04:34:50;102597.81;;;-2.50;84.23
6208;BME280;3137;51.550;7.060;2023-01-29T04:40:19;102581.31;;;-2.40;83.00
6208;BME280;3137;51.550;7.060;2023-01-29T04:42:49;102581.38;;;-2.32;83.45
6208;BME280;3137;51.550;7.060;2023-01-29T04:48:23;102568.28;;;-2.31;84.08
6208;BME280;3137;51.550;7.060;2023-01-29T04:50:59;102564.81;;;-2.28;84.10
6208;BME280;3137;51.550;7.060;2023-01-29T04:53:40;102557.84;;;-2.29;83.64
6208;BME280;3137;51.550;7.060;2023-01-29T04:56:16;102558.72;;;-2.27;83.23
6208;BME280;3137;51.550;7.060;2023-01-29T04:58:51;102563.19;;;-2.19;83.20
6208;BME280;3137;51.550;7.060;2023-01-29T05:01:21;102559.69;;;-2.19;83.61
6208;BME280;3137;51.550;7.060;2023-01-29T05:03:52;102553.56;;;-2.20;83.86
6208;BME280;3137;51.550;7.060;2023-01-29T05:06:21;102551.88;;;-2.13;82.79
6208;BME280;3137;51.550;7.060;2023-01-29T05:08:48;102551.88;;;-2.15;83.23
6208;BME280;3137;51.550;7.060;2023-01-29T05:11:17;102530.91;;;-2.10;83.22
6208;BME280;3137;51.550;7.060;2023-01-29T05:13:46;102530.03;;;-2.10;83.08
6208;BME280;3137;51.550;7.060;2023-01-29T05:16:18;102529.19;;;-2.06;83.30
6208;BME280;3137;51.550;7.060;2023-01-29T05:18:47;102528.34;;;-2.04;82.67
6208;BME280;3137;51.550;7.060;2023-01-29T05:21:14;102524.91;;;-1.98;82.61
6208;BME280;3137;51.550;7.060;2023-01-29T05:23:41;102525.78;;;-1.95;82.66
6208;BME280;3137;51.550;7.060;2023-01-29T05:26:19;102520.56;;;-1.96;83.29
6208;BME280;3137;51.550;7.060;2023-01-29T05:29:05;102521.41;;;-1.94;83.12
6208;BME280;3137;51.550;7.060;2023-01-29T05:31:31;102514.41;;;-1.95;82.91
6208;BME280;3137;51.550;7.060;2023-01-29T05:33:57;102524.13;;;-1.88;82.67
6208;BME280;3137;51.550;7.060;2023-01-29T05:36:24;102520.59;;;-1.87;82.93
6208;BME280;3137;51.550;7.060;2023-01-29T05:38:51;102522.41;;;-1.84;82.24
6208;BME280;3137;51.550;7.060;2023-01-29T05:41:18;102515.38;;;-1.85;82.88
6208;BME280;3137;51.550;7.060;2023-01-29T05:43:46;102518.03;;;-1.84;82.56
6208;BME280;3137;51.550;7.060;2023-01-29T05:46:12;102523.28;;;-1.84;82.90
6208;BME280;3137;51.550;7.060;2023-01-29T05:48:38;102521.53;;;-1.80;82.82
6208;BME280;3137;51.550;7.060;2023-01-29T05:51:05;102534.66;;;-1.83;82.20
6208;BME280;3137;51.550;7.060;2023-01-29T05:53:31;102539.06;;;-1.78;82.44
6208;BME280;3137;51.550;7.060;2023-01-29T05:56:02;102540.00;;;-1.74;82.21
6208;BME280;3137;51.550;7.060;2023-01-29T05:58:30;102542.59;;;-1.76;82.92
6208;BME280;3137;51.550;7.060;2023-01-29T06:00:57;102546.94;;;-1.78;82.82
6208;BME280;3137;51.550;7.060;2023-01-29T06:03:23;102548.75;;;-1.74;82.46
6208;BME280;3137;51.550;7.060;2023-01-29T06:05:51;102549.69;;;-1.67;82.12
6208;BME280;3137;51.550;7.060;2023-01-29T06:08:18;102551.44;;;-1.64;81.92
6208;BME280;3137;51.550;7.060;2023-01-29T06:10:44;102555.03;;;-1.52;81.93
6208;BME280;3137;51.550;7.060;2023-01-29T06:13:10;102566.38;;;-1.59;81.86
6208;BME280;3137;51.550;7.060;2023-01-29T06:15:38;102562.75;;;-1.70;82.01
6208;BME280;3137;51.550;7.060;2023-01-29T06:18:06;102561.91;;;-1.72;82.15
6208;BME280;3137;51.550;7.060;2023-01-29T06:20:32;102567.16;;;-1.71;82.69
6208;BME280;3137;51.550;7.060;2023-01-29T06:22:59;102568.97;;;-1.65;82.63
6208;BME280;3137;51.550;7.060;2023-01-29T06:25:25;102574.16;;;-1.71;82.64
6208;BME280;3137;51.550;7.060;2023-01-29T06:27:51;102577.69;;;-1.66;81.97
6208;BME280;3137;51.550;7.060;2023-01-29T06:30:18;102568.09;;;-1.64;82.56
6208;BME280;3137;51.550;7.060;2023-01-29T06:32:45;102554.06;;;-1.63;82.72
6208;BME280;3137;51.550;7.060;2023-01-29T06:35:11;102543.59;;;-1.61;82.53
6208;BME280;3137;51.550;7.060;2023-01-29T06:37:37;102536.59;;;-1.61;82.53
6208;BME280;3137;51.550;7.060;2023-01-29T06:40:04;102538.34;;;-1.60;82.30
6208;BME280;3137;51.550;7.060;2023-01-29T06:42:34;102542.72;;;-1.62;81.85
6208;BME280;3137;51.550;7.060;2023-01-29T06:45:00;102551.50;;;-1.57;82.53
6208;BME280;3137;51.550;7.060;2023-01-29T06:47:26;102550.66;;;-1.54;82.05
6208;BME280;3137;51.550;7.060;2023-01-29T06:49:53;102558.59;;;-1.48;82.31
6208;BME280;3137;51.550;7.060;2023-01-29T06:52:19;102552.47;;;-1.44;82.01
6208;BME280;3137;51.550;7.060;2023-01-29T06:54:45;102549.75;;;-1.58;81.84
6208;BME280;3137;51.550;7.060;2023-01-29T06:57:12;102548.06;;;-1.46;81.80
6208;BME280;3137;51.550;7.060;2023-01-29T06:59:38;102545.50;;;-1.43;82.66
6208;BME280;3137;51.550;7.060;2023-01-29T07:02:05;102551.63;;;-1.43;82.18
6208;BME280;3137;51.550;7.060;2023-01-29T07:04:32;102541.97;;;-1.42;81.77
6208;BME280;3137;51.550;7.060;2023-01-29T07:06:58;102545.47;;;-1.42;81.23
6208;BME280;3137;51.550;7.060;2023-01-29T07:09:25;102546.41;;;-1.38;81.46
6208;BME280;3137;51.550;7.060;2023-01-29T07:11:51;102551.66;;;-1.35;81.84
6208;BME280;3137;51.550;7.060;2023-01-29T07:14:17;102559.63;;;-1.26;81.52
6208;BME280;3137;51.550;7.060;2023-01-29T07:16:44;102549.09;;;-1.31;81.36
6208;BME280;3137;51.550;7.060;2023-01-29T07:19:10;102542.09;;;-1.25;81.50
6208;BME280;3137;51.550;7.060;2023-01-29T07:21:36;102540.31;;;-1.30;80.80
6208;BME280;3137;51.550;7.060;2023-01-29T07:24:03;102557.84;;;-1.29;80.67
6208;BME280;3137;51.550;7.060;2023-01-29T07:26:30;102542.97;;;-1.28;81.12
6208;BME280;3137;51.550;7.060;2023-01-29T07:28:56;102543.84;;;-1.26;80.79
6208;BME280;3137;51.550;7.060;2023-01-29T07:31:22;102544.69;;;-1.30;81.38
6208;BME280;3137;51.550;7.060;2023-01-29T07:33:49;102564.03;;;-1.22;80.72
6208;BME280;3137;51.550;7.060;2023-01-29T07:36:15;102559.66;;;-1.21;80.53
6208;BME280;3137;51.550;7.060;2023-01-29T07:38:41;102559.66;;;-1.21;80.75
6208;BME280;3137;51.550;7.060;2023-01-29T07:41:10;102558.75;;;-1.25;80.57
6208;BME280;3137;51.550;7.060;2023-01-29T07:43:36;102548.25;;;-1.20;80.47
6208;BME280;3137;51.550;7.060;2023-01-29T07:46:03;102548.31;;;-1.17;80.19
6208;BME280;3137;51.550;7.060;2023-01-29T07:48:30;102557.94;;;-1.19;80.90
6208;BME280;3137;51.550;7.060;2023-01-29T07:50:56;102549.19;;;-1.17;80.93
6208;BME280;3137;51.550;7.060;2023-01-29T07:53:23;102553.56;;;-1.17;80.71
6208;BME280;3137;51.550;7.060;2023-01-29T07:55:50;102545.69;;;-1.14;81.14
6208;BME280;3137;51.550;7.060;2023-01-29T07:58:17;102548.28;;;-1.19;80.99
6208;BME280;3137;51.550;7.060;2023-01-29T08:00:43;102542.16;;;-1.19;80.53
6208;BME280;3137;51.550;7.060;2023-01-29T08:03:12;102538.63;;;-1.20;80.85
6208;BME280;3137;51.550;7.060;2023-01-29T08:05:39;102541.34;;;-1.08;80.16
6208;BME280;3137;51.550;7.060;2023-01-29T08:08:05;102536.94;;;-1.09;80.98
6208;BME280;3137;51.550;7.060;2023-01-29T08:10:34;102543.09;;;-1.10;79.87
6208;BME280;3137;51.550;7.060;2023-01-29T08:13:02;102541.34;;;-1.09;80.60
6208;BME280;3137;51.550;7.060;2023-01-29T08:15:29;102536.06;;;-1.09;80.30
6208;BME280;3137;51.550;7.060;2023-01-29T08:17:56;102537.81;;;-1.08;79.87
6208;BME280;3137;51.550;7.060;2023-01-29T08:20:42;102527.34;;;-1.02;80.16
6208;BME280;3137;51.550;7.060;2023-01-29T08:23:13;102522.94;;;-1.06;80.49
6208;BME280;3137;51.550;7.060;2023-01-29T08:25:40;102528.19;;;-1.12;80.64
6208;BME280;3137;51.550;7.060;2023-01-29T08:28:07;102528.16;;;-1.11;80.18
6208;BME280;3137;51.550;7.060;2023-01-29T08:30:34;102529.94;;;-1.08;80.03
6208;BME280;3137;51.550;7.060;2023-01-29T08:33:03;102526.47;;;-1.02;80.09
6208;BME280;3137;51.550;7.060;2023-01-29T08:35:29;102520.31;;;-1.08;80.19
6208;BME280;3137;51.550;7.060;2023-01-29T08:37:57;102511.56;;;-1.03;80.61
6208;BME280;3137;51.550;7.060;2023-01-29T08:40:26;102512.44;;;-1.04;80.85
6208;BME280;3137;51.550;7.060;2023-01-29T08:42:59;102504.53;;;-1.08;80.42
6208;BME280;3137;51.550;7.060;2023-01-29T08:45:28;102494.03;;;-1.06;80.55
6208;BME280;3137;51.550;7.060;2023-01-29T08:47:55;102498.38;;;-1.11;81.10
6208;BME280;3137;51.550;7.060;2023-01-29T08:50:22;102496.66;;;-1.01;80.66
6208;BME280;3137;51.550;7.060;2023-01-29T08:52:48;102493.16;;;-1.02;80.28
6208;BME280;3137;51.550;7.060;2023-01-29T08:55:14;102498.47;;;-0.91;79.57
6208;BME280;3137;51.550;7.060;2023-01-29T08:57:41;102505.50;;;-0.90;79.63
6208;BME280;3137;51.550;7.060;2023-01-29T09:00:08;102503.75;;;-0.85;79.15
6208;BME280;3137;51.550;7.060;2023-01-29T09:02:36;102493.22;;;-0.87;80.15
6208;BME280;3137;51.550;7.060;2023-01-29T09:05:03;102496.75;;;-0.81;79.81
6208;BME280;3137;51.550;7.060;2023-01-29T09:07:29;102486.19;;;-0.94;79.80
6208;BME280;3137;51.550;7.060;2023-01-29T09:09:56;102488.84;;;-0.88;80.19
6208;BME280;3137;51.550;7.060;2023-01-29T09:12:22;102491.50;;;-0.83;79.51
6208;BME280;3137;51.550;7.060;2023-01-29T09:14:49;102477.47;;;-0.77;79.37
6208;BME280;3137;51.550;7.060;2023-01-29T09:17:15;102474.84;;;-0.80;78.50
6208;BME280;3137;51.550;7.060;2023-01-29T09:19:41;102474.84;;;-0.82;79.82
6208;BME280;3137;51.550;7.060;2023-01-29T09:22:08;102474.84;;;-0.80;79.05
6208;BME280;3137;51.550;7.060;2023-01-29T09:24:37;102467.84;;;-0.77;79.68
6208;BME280;3137;51.550;7.060;2023-01-29T09:27:03;102453.84;;;-0.68;78.93
6208;BME280;3137;51.550;7.060;2023-01-29T09:29:31;102467.88;;;-0.66;78.71
6208;BME280;3137;51.550;7.060;2023-01-29T09:32:01;102467.91;;;-0.65;78.63
6208;BME280;3137;51.550;7.060;2023-01-29T09:34:28;102461.75;;;-0.62;79.25
6208;BME280;3137;51.550;7.060;2023-01-29T09:36:54;102464.38;;;-0.60;79.18
6208;BME280;3137;51.550;7.060;2023-01-29T09:39:21;102458.25;;;-0.59;78.23
6208;BME280;3137;51.550;7.060;2023-01-29T09:47:11;102464.41;;;-0.51;78.62
6208;BME280;3137;51.550;7.060;2023-01-29T09:49:42;102466.19;;;-0.44;78.40
6208;BME280;3137;51.550;7.060;2023-01-29T09:52:17;102461.81;;;-0.39;77.65
6208;BME280;3137;51.550;7.060;2023-01-29T09:54:58;102468.81;;;-0.41;78.05
6208;BME280;3137;51.550;7.060;2023-01-29T09:57:33;102466.19;;;-0.43;78.69
6208;BME280;3137;51.550;7.060;2023-01-29T10:00:04;102470.59;;;-0.35;77.97
6208;BME280;3137;51.550;7.060;2023-01-29T10:02:56;102463.56;;;-0.30;78.61
6208;BME280;3137;51.550;7.060;2023-01-29T10:08:24;102467.09;;;-0.33;78.49
6208;BME280;3137;51.550;7.060;2023-01-29T10:11:10;102457.41;;;-0.29;77.70
6208;BME280;3137;51.550;7.060;2023-01-29T10:16:46;102467.97;;;-0.25;77.60
6208;BME280;3137;51.550;7.060;2023-01-29T10:19:25;102468.81;;;-0.24;77.18
6208;BME280;3137;51.550;7.060;2023-01-29T10:22:18;102474.13;;;-0.13;76.95
6208;BME280;3137;51.550;7.060;2023-01-29T10:27:50;102460.06;;;-0.12;76.78
6208;BME280;3137;51.550;7.060;2023-01-29T10:30:22;102453.06;;;0.07;76.84
6208;BME280;3137;51.550;7.060;2023-01-29T10:32:54;102446.91;;;0.02;76.32
6208;BME280;3137;51.550;7.060;2023-01-29T10:35:27;102453.94;;;0.01;75.87
6208;BME280;3137;51.550;7.060;2023-01-29T10:37:57;102452.19;;;0.11;75.44
6208;BME280;3137;51.550;7.060;2023-01-29T10:40:30;102440.75;;;0.12;76.33
6208;BME280;3137;51.550;7.060;2023-01-29T10:43:07;102443.38;;;0.12;75.66
6208;BME280;3137;51.550;7.060;2023-01-29T10:45:47;102438.13;;;0.23;76.80
6208;BME280;3137;51.550;7.060;2023-01-29T10:51:33;102424.06;;;0.28;76.53
6208;BME280;3137;51.550;7.060;2023-01-29T10:59:28;102429.31;;;0.37;76.22
6208;BME280;3137;51.550;7.060;2023-01-29T11:01:57;102416.13;;;0.40;75.07
6208;BME280;3137;51.550;7.060;2023-01-29T11:04:25;102417.91;;;0.38;75.99
6208;BME280;3137;51.550;7.060;2023-01-29T11:06:53;102407.38;;;0.37;75.32
6208;BME280;3137;51.550;7.060;2023-01-29T11:09:41;102404.72;;;0.32;76.17
6208;BME280;3137;51.550;7.060;2023-01-29T11:12:14;102402.97;;;0.33;75.56
6208;BME280;3137;51.550;7.060;2023-01-29T11:14:45;102391.56;;;0.37;76.39
6208;BME280;3137;51.550;7.060;2023-01-29T11:17:18;102389.78;;;0.39;75.98
6208;BME280;3137;51.550;7.060;2023-01-29T11:19:46;102380.13;;;0.38;76.27
6208;BME280;3137;51.550;7.060;2023-01-29T11:22:26;102377.50;;;0.41;75.20
6208;BME280;3137;51.550;7.060;2023-01-29T11:25:25;102382.75;;;0.41;76.21
6208;BME280;3137;51.550;7.060;2023-01-29T11:27:56;102369.59;;;0.33;75.83
6208;BME280;3137;51.550;7.060;2023-01-29T11:33:10;102367.00;;;0.24;75.60
6208;BME280;3137;51.550;7.060;2023-01-29T11:35:37;102367.00;;;0.19;75.92
6208;BME280;3137;51.550;7.060;2023-01-29T11:38:24;102372.25;;;0.23;75.16
6208;BME280;3137;51.550;7.060;2023-01-29T11:40:51;102363.44;;;0.33;75.95
6208;BME280;3137;51.550;7.060;2023-01-29T11:43:28;102361.72;;;0.27;75.42
6208;BME280;3137;51.550;7.060;2023-01-29T11:46:03;102347.66;;;0.28;76.08
6208;BME280;3137;51.550;7.060;2023-01-29T11:48:47;102346.78;;;0.34;75.34
6208;BME280;3137;51.550;7.060;2023-01-29T11:51:27;102334.44;;;0.42;75.26
6208;BME280;3137;51.550;7.060;2023-01-29T11:53:57;102335.34;;;0.36;75.64
6208;BME280;3137;51.550;7.060;2023-01-29T11:56:44;102330.09;;;0.32;74.57
6208;BME280;3137;51.550;7.060;2023-01-29T11:59:34;102321.28;;;0.36;75.33
6208;BME280;3137;51.550;7.060;2023-01-29T12:02:24;102309.84;;;0.35;76.24
6208;BME280;3137;51.550;7.060;2023-01-29T12:04:54;102299.28;;;0.46;74.85
6208;BME280;3137;51.550;7.060;2023-01-29T12:07:23;102302.78;;;0.51;74.27
6208;BME280;3137;51.550;7.060;2023-01-29T12:09:55;102295.75;;;0.47;75.15
6208;BME280;3137;51.550;7.060;2023-01-29T12:12:42;102287.84;;;0.49;74.70
6208;BME280;3137;51.550;7.060;2023-01-29T12:17:47;102277.25;;;0.55;75.55
6208;BME280;3137;51.550;7.060;2023-01-29T12:20:23;102263.25;;;0.53;74.59
6208;BME280;3137;51.550;7.060;2023-01-29T12:23:04;102252.66;;;0.57;75.06
6208;BME280;3137;51.550;7.060;2023-01-29T12:25:43;102245.66;;;0.58;75.73
6208;BME280;3137;51.550;7.060;2023-01-29T12:28:41;102244.66;;;0.74;75.72
6208;BME280;3137;51.550;7.060;2023-01-29T12:39:40;102229.59;;;0.89;74.15
6208;BME280;3137;51.550;7.060;2023-01-29T12:42:15;102224.31;;;0.92;75.16
6208;BME280;3137;51.550;7.060;2023-01-29T12:44:47;102220.75;;;0.99;74.65
6208;BME280;3137;51.550;7.060;2023-01-29T12:47:27;102216.31;;;1.04;75.03
6208;BME280;3137;51.550;7.060;2023-01-29T12:50:01;102219.88;;;0.98;75.39
6208;BME280;3137;51.550;7.060;2023-01-29T12:55:29;102209.41;;;0.88;74.63
6208;BME280;3137;51.550;7.060;2023-01-29T12:58:01;102211.13;;;0.89;75.31
6208;BME280;3137;51.550;7.060;2023-01-29T13:00:34;102202.31;;;0.93;74.26
6208;BME280;3137;51.550;7.060;2023-01-29T13:03:26;102193.59;;;0.84;74.73
6208;BME280;3137;51.550;7.060;2023-01-29T13:06:01;102195.31;;;0.92;74.25
6208;BME280;3137;51.550;7.060;2023-01-29T13:11:22;102185.59;;;0.98;74.69
6208;BME280;3137;51.550;7.060;2023-01-29T13:14:00;102185.66;;;0.88;74.40
6208;BME280;3137;51.550;7.060;2023-01-29T13:16:35;102183.00;;;0.94;73.98
6208;BME280;3137;51.550;7.060;2023-01-29T13:19:30;102175.03;;;0.95;75.40
6208;BME280;3137;51.550;7.060;2023-01-29T13:22:00;102178.50;;;1.00;74.62
6208;BME280;3137;51.550;7.060;2023-01-29T13:24:37;102179.38;;;1.02;74.75
6208;BME280;3137;51.550;7.060;2023-01-29T13:27:06;102183.72;;;1.11;74.38
6208;BME280;3137;51.550;7.060;2023-01-29T13:29:33;102177.56;;;1.11;74.58
6208;BME280;3137;51.550;7.060;2023-01-29T13:32:01;102173.19;;;1.06;73.34
6208;BME280;3137;51.550;7.060;2023-01-29T13:34:30;102171.41;;;1.09;74.36
6208;BME280;3137;51.550;7.060;2023-01-29T13:37:00;102180.25;;;1.03;74.35
6208;BME280;3137;51.550;7.060;2023-01-29T13:39:36;102167.88;;;1.11;73.63
6208;BME280;3137;51.550;7.060;2023-01-29T13:44:52;102181.06;;;1.13;73.40
6208;BME280;3137;51.550;7.060;2023-01-29T13:47:24;102176.66;;;1.10;73.55
6208;BME280;3137;51.550;7.060;2023-01-29T13:49:59;102172.38;;;1.00;73.07
6208;BME280;3137;51.550;7.060;2023-01-29T13:52:40;102171.53;;;0.95;73.95
6208;BME280;3137;51.550;7.060;2023-01-29T14:10:41;102154.84;;;0.94;74.55
6208;BME280;3137;51.550;7.060;2023-01-29T14:15:44;102152.16;;;0.96;74.78
6208;BME280;3137;51.550;7.060;2023-01-29T14:18:23;102147.72;;;1.04;74.41
6208;BME280;3137;51.550;7.060;2023-01-29T14:20:53;102145.94;;;1.04;74.76
6208;BME280;3137;51.550;7.060;2023-01-29T14:23:28;102150.44;;;0.96;74.38
6208;BME280;3137;51.550;7.060;2023-01-29T14:25:58;102148.66;;;0.98;74.21
6208;BME280;3137;51.550;7.060;2023-01-29T14:28:27;102139.81;;;1.02;75.11
6208;BME280;3137;51.550;7.060;2023-01-29T14:30:54;102136.28;;;1.05;74.22
6208;BME280;3137;51.550;7.060;2023-01-29T14:33:25;102135.38;;;1.08;74.94
6208;BME280;3137;51.550;7.060;2023-01-29T14:35:55;102127.53;;;1.01;74.16
6208;BME280;3137;51.550;7.060;2023-01-29T14:38:24;102133.66;;;1.03;75.34
6208;BME280;3137;51.550;7.060;2023-01-29T14:41:02;102134.44;;;1.12;75.22
6208;BME280;3137;51.550;7.060;2023-01-29T14:43:29;102130.91;;;1.14;74.10
6208;BME280;3137;51.550;7.060;2023-01-29T14:49:00;102121.22;;;1.15;75.58
6208;BME280;3137;51.550;7.060;2023-01-29T14:51:33;102124.75;;;1.15;75.39
6208;BME280;3137;51.550;7.060;2023-01-29T14:54:04;102120.34;;;1.14;74.98
6208;BME280;3137;51.550;7.060;2023-01-29T14:56:43;102119.47;;;1.15;75.30
6208;BME280;3137;51.550;7.060;2023-01-29T15:02:03;102118.50;;;1.24;74.20
6208;BME280;3137;51.550;7.060;2023-01-29T15:04:40;102114.97;;;1.25;74.92
6208;BME280;3137;51.550;7.060;2023-01-29T15:09:43;102107.16;;;1.16;75.21
6208;BME280;3137;51.550;7.060;2023-01-29T15:12:31;102108.94;;;1.14;74.63
6208;BME280;3137;51.550;7.060;2023-01-29T15:15:04;102111.56;;;1.15;74.23